sensor_id;sensor_type;location;lat;lon;timestamp;temperature;humidity
13642;DHT22;6894;52.196;9.904;2024-01-30T00:01:13;5.80;99.90
13642;DHT22;6894;52.196;9.904;2024-01-30T00:03:40;5.70;99.90
13642;DHT22;6894;52.196;9.904;2024-01-30T00:06:07;5.70;99.90
13642;DHT22;6894;52.196;9.904;2024-01-30T00:08:36;5.70;99.90
13642;DHT22;6894;52.196;9.904;2024-01-30T00:11:03;5.60;99.90
13642;DHT22;6894;52.196;9.904;2024-01-30T00:13:29;5.50;99.90
13642;DHT22;6894;52.196;9.904;2024-01-30T00:15:56;5.40;99.90
13642;DHT22;6894;52.196;9.904;2024-01-30T00:18:23;5.40;99.90
13642;DHT22;6894;52.196;9.904;2024-01-30T00:20:50;5.40;99.90
13642;DHT22;6894;52.196;9.904;2024-01-30T00:23:16;5.40;99.90
13642;DHT22;6894;52.196;9.904;2024-01-30T00:25:45;5.40;99.90
13642;DHT22;6894;52.196;9.904;2024-01-30T00:28:11;5.50;1.00
13642;DHT22;6894;52.196;9.904;2024-01-30T00:30:38;5.60;1.00
13642;DHT22;6894;52.196;9.904;2024-01-30T00:33:05;5.60;1.00
13642;DHT22;6894;52.196;9.904;2024-01-30T00:35:31;5.70;1.00
13642;DHT22;6894;52.196;9.904;2024-01-30T00:37:58;5.80;1.00
13642;DHT22;6894;52.196;9.904;2024-01-30T00:40:25;6.00;99.90
13642;DHT22;6894;52.196;9.904;2024-01-30T00:42:54;6.20;99.90
13642;DHT22;6894;52.196;9.904;2024-01-30T00:45:21;6.20;1.00
13642;DHT22;6894;52.196;9.904;2024-01-30T00:47:47;6.00;1.00
13642;DHT22;6894;52.196;9.904;2024-01-30T00:50:14;6.00;1.00
13642;DHT22;6894;52.196;9.904;2024-01-30T00:52:41;6.00;1.00
13642;DHT22;6894;52.196;9.904;2024-01-30T00:55:10;5.80;1.00
13642;DHT22;6894;52.196;9.904;2024-01-30T00:57:37;5.90;1.00
13642;DHT22;6894;52.196;9.904;2024-01-30T01:00:07;5.80;1.00
13642;DHT22;6894;52.196;9.904;2024-01-30T01:02:34;5.80;1.00
13642;DHT22;6894;52.196;9.904;2024-01-30T01:05:01;5.70;1.00
13642;DHT22;6894;52.196;9.904;2024-01-30T01:07:28;5.70;1.00
13642;DHT22;6894;52.196;9.904;2024-01-30T01:09:55;5.70;1.00
13642;DHT22;6894;52.196;9.904;2024-01-30T01:12:21;5.90;1.00
13642;DHT22;6894;52.196;9.904;2024-01-30T01:14:48;5.80;1.00
13642;DHT22;6894;52.196;9.904;2024-01-30T01:17:16;5.90;1.00
13642;DHT22;6894;52.196;9.904;2024-01-30T01:19:44;6.00;1.00
13642;DHT22;6894;52.196;9.904;2024-01-30T01:22:11;6.20;1.00
13642;DHT22;6894;52.196;9.904;2024-01-30T01:24:37;6.20;1.00
13642;DHT22;6894;52.196;9.904;2024-01-30T01:27:05;6.20;1.00
13642;DHT22;6894;52.196;9.904;2024-01-30T01:29:32;6.30;1.00
13642;DHT22;6894;52.196;9.904;2024-01-30T01:31:58;6.30;1.00
13642;DHT22;6894;52.196;9.904;2024-01-30T01:34:27;6.20;1.00
13642;DHT22;6894;52.196;9.904;2024-01-30T01:36:53;6.20;1.00
13642;DHT22;6894;52.196;9.904;2024-01-30T01:39:21;6.20;1.00
13642;DHT22;6894;52.196;9.904;2024-01-30T01:41:48;6.20;99.90
13642;DHT22;6894;52.196;9.904;2024-01-30T01:44:15;6.20;1.00
13642;DHT22;6894;52.196;9.904;2024-01-30T01:46:42;6.30;99.90
13642;DHT22;6894;52.196;9.904;2024-01-30T01:49:09;6.30;1.00
13642;DHT22;6894;52.196;9.904;2024-01-30T01:51:38;6.10;1.00
13642;DHT22;6894;52.196;9.904;2024-01-30T01:54:06;6.00;1.00
13642;DHT22;6894;52.196;9.904;2024-01-30T01:56:34;5.80;1.00
13642;DHT22;6894;52.196;9.904;2024-01-30T01:59:05;5.90;1.00
13642;DHT22;6894;52.196;9.904;2024-01-30T02:01:33;5.90;1.00
13642;DHT22;6894;52.196;9.904;2024-01-30T02:04:00;5.90;1.00
13642;DHT22;6894;52.196;9.904;2024-01-30T02:06:27;5.90;1.00
13642;DHT22;6894;52.196;9.904;2024-01-30T02:08:55;6.00;1.00
13642;DHT22;6894;52.196;9.904;2024-01-30T02:11:22;6.00;99.90
13642;DHT22;6894;52.196;9.904;2024-01-30T02:13:49;6.00;99.90
13642;DHT22;6894;52.196;9.904;2024-01-30T02:16:16;6.00;90.60
13642;DHT22;6894;52.196;9.904;2024-01-30T02:18:43;6.00;99.90
13642;DHT22;6894;52.196;9.904;2024-01-30T02:21:14;6.00;9.00
13642;DHT22;6894;52.196;9.904;2024-01-30T02:23:41;6.00;21.30
13642;DHT22;6894;52.196;9.904;2024-01-30T02:26:09;6.00;86.90
13642;DHT22;6894;52.196;9.904;2024-01-30T02:28:36;6.00;80.00
13642;DHT22;6894;52.196;9.904;2024-01-30T02:31:03;6.00;99.90
13642;DHT22;6894;52.196;9.904;2024-01-30T02:33:30;6.00;80.50
13642;DHT22;6894;52.196;9.904;2024-01-30T02:35:57;6.00;99.90
13642;DHT22;6894;52.196;9.904;2024-01-30T02:38:26;6.00;41.20
13642;DHT22;6894;52.196;9.904;2024-01-30T02:40:54;6.10;1.00
13642;DHT22;6894;52.196;9.904;2024-01-30T02:43:21;6.10;1.00
13642;DHT22;6894;52.196;9.904;2024-01-30T02:45:47;6.10;11.80
13642;DHT22;6894;52.196;9.904;2024-01-30T02:48:14;6.00;1.00
13642;DHT22;6894;52.196;9.904;2024-01-30T02:50:41;6.00;99.90
13642;DHT22;6894;52.196;9.904;2024-01-30T02:53:07;6.00;99.90
13642;DHT22;6894;52.196;9.904;2024-01-30T02:55:35;5.90;99.90
13642;DHT22;6894;52.196;9.904;2024-01-30T02:58:02;5.90;99.90
13642;DHT22;6894;52.196;9.904;2024-01-30T03:00:28;5.80;99.90
13642;DHT22;6894;52.196;9.904;2024-01-30T03:02:55;5.70;99.90
13642;DHT22;6894;52.196;9.904;2024-01-30T03:05:22;5.70;99.90
13642;DHT22;6894;52.196;9.904;2024-01-30T03:07:48;5.60;99.90
13642;DHT22;6894;52.196;9.904;2024-01-30T03:10:15;5.60;99.90
13642;DHT22;6894;52.196;9.904;2024-01-30T03:12:43;5.60;99.90
13642;DHT22;6894;52.196;9.904;2024-01-30T03:15:10;5.60;99.90
13642;DHT22;6894;52.196;9.904;2024-01-30T03:17:37;5.60;99.90
13642;DHT22;6894;52.196;9.904;2024-01-30T03:20:07;5.60;99.90
13642;DHT22;6894;52.196;9.904;2024-01-30T03:22:34;5.60;99.90
13642;DHT22;6894;52.196;9.904;2024-01-30T03:25:01;5.60;99.90
13642;DHT22;6894;52.196;9.904;2024-01-30T03:27:28;5.60;1.00
13642;DHT22;6894;52.196;9.904;2024-01-30T03:29:56;5.70;1.00
13642;DHT22;6894;52.196;9.904;2024-01-30T03:32:23;5.70;1.00
13642;DHT22;6894;52.196;9.904;2024-01-30T03:34:50;5.70;1.00
13642;DHT22;6894;52.196;9.904;2024-01-30T03:37:16;5.80;1.00
13642;DHT22;6894;52.196;9.904;2024-01-30T03:39:43;5.70;1.00
13642;DHT22;6894;52.196;9.904;2024-01-30T03:42:10;5.70;1.00
13642;DHT22;6894;52.196;9.904;2024-01-30T03:44:37;5.70;1.00
13642;DHT22;6894;52.196;9.904;2024-01-30T03:47:05;5.80;1.00
13642;DHT22;6894;52.196;9.904;2024-01-30T03:49:31;5.70;1.00
13642;DHT22;6894;52.196;9.904;2024-01-30T03:51:58;5.70;1.00
13642;DHT22;6894;52.196;9.904;2024-01-30T03:54:25;5.70;1.00
13642;DHT22;6894;52.196;9.904;2024-01-30T03:56:52;5.70;1.00
13642;DHT22;6894;52.196;9.904;2024-01-30T03:59:18;5.70;1.00
13642;DHT22;6894;52.196;9.904;2024-01-30T04:01:49;5.80;1.00
13642;DHT22;6894;52.196;9.904;2024-01-30T04:04:17;5.80;1.00
13642;DHT22;6894;52.196;9.904;2024-01-30T04:06:44;5.80;1.00
13642;DHT22;6894;52.196;9.904;2024-01-30T04:09:12;5.70;1.00
13642;DHT22;6894;52.196;9.904;2024-01-30T04:11:40;5.80;1.00
13642;DHT22;6894;52.196;9.904;2024-01-30T04:14:07;5.80;1.00
13642;DHT22;6894;52.196;9.904;2024-01-30T04:16:33;5.80;1.00
13642;DHT22;6894;52.196;9.904;2024-01-30T04:19:01;5.70;1.00
13642;DHT22;6894;52.196;9.904;2024-01-30T04:21:29;5.70;1.00
13642;DHT22;6894;52.196;9.904;2024-01-30T04:23:56;5.70;1.00
13642;DHT22;6894;52.196;9.904;2024-01-30T04:26:23;5.70;1.00
13642;DHT22;6894;52.196;9.904;2024-01-30T04:28:50;5.60;1.00
13642;DHT22;6894;52.196;9.904;2024-01-30T04:31:16;5.60;1.00
13642;DHT22;6894;52.196;9.904;2024-01-30T04:33:43;5.70;1.00
13642;DHT22;6894;52.196;9.904;2024-01-30T04:36:10;5.60;1.00
13642;DHT22;6894;52.196;9.904;2024-01-30T04:38:38;5.60;1.00
13642;DHT22;6894;52.196;9.904;2024-01-30T04:41:05;5.50;1.00
13642;DHT22;6894;52.196;9.904;2024-01-30T04:43:32;5.50;1.00
13642;DHT22;6894;52.196;9.904;2024-01-30T04:45:59;5.60;1.00
13642;DHT22;6894;52.196;9.904;2024-01-30T04:48:25;5.40;1.00
13642;DHT22;6894;52.196;9.904;2024-01-30T04:50:52;5.50;1.00
13642;DHT22;6894;52.196;9.904;2024-01-30T04:53:19;5.40;1.00
13642;DHT22;6894;52.196;9.904;2024-01-30T04:55:47;5.40;1.00
13642;DHT22;6894;52.196;9.904;2024-01-30T04:58:14;5.40;1.00
13642;DHT22;6894;52.196;9.904;2024-01-30T05:00:41;5.40;1.00
13642;DHT22;6894;52.196;9.904;2024-01-30T05:03:07;5.40;1.00
13642;DHT22;6894;52.196;9.904;2024-01-30T05:05:34;5.40;1.00
13642;DHT22;6894;52.196;9.904;2024-01-30T05:08:01;5.30;1.00
13642;DHT22;6894;52.196;9.904;2024-01-30T05:10:28;5.30;35.10
13642;DHT22;6894;52.196;9.904;2024-01-30T05:12:56;5.30;92.70
13642;DHT22;6894;52.196;9.904;2024-01-30T05:15:23;5.30;69.60
13642;DHT22;6894;52.196;9.904;2024-01-30T05:17:50;5.30;78.10
13642;DHT22;6894;52.196;9.904;2024-01-30T05:20:17;5.30;77.70
13642;DHT22;6894;52.196;9.904;2024-01-30T05:22:43;5.20;99.80
13642;DHT22;6894;52.196;9.904;2024-01-30T05:25:11;5.20;99.90
13642;DHT22;6894;52.196;9.904;2024-01-30T05:27:38;5.10;99.90
13642;DHT22;6894;52.196;9.904;2024-01-30T05:30:07;5.20;99.90
13642;DHT22;6894;52.196;9.904;2024-01-30T05:32:34;5.20;1.00
13642;DHT22;6894;52.196;9.904;2024-01-30T05:35:01;5.60;1.00
13642;DHT22;6894;52.196;9.904;2024-01-30T05:37:28;5.70;1.00
13642;DHT22;6894;52.196;9.904;2024-01-30T05:39:55;5.90;1.00
13642;DHT22;6894;52.196;9.904;2024-01-30T05:42:22;6.10;1.00
13642;DHT22;6894;52.196;9.904;2024-01-30T05:44:48;6.10;1.00
13642;DHT22;6894;52.196;9.904;2024-01-30T05:47:16;6.30;1.00
13642;DHT22;6894;52.196;9.904;2024-01-30T05:49:43;6.40;1.00
13642;DHT22;6894;52.196;9.904;2024-01-30T05:52:10;6.50;1.00
13642;DHT22;6894;52.196;9.904;2024-01-30T05:54:37;6.60;1.00
13642;DHT22;6894;52.196;9.904;2024-01-30T05:57:04;6.70;99.90
13642;DHT22;6894;52.196;9.904;2024-01-30T05:59:31;6.70;77.10
13642;DHT22;6894;52.196;9.904;2024-01-30T06:01:58;6.60;1.00
13642;DHT22;6894;52.196;9.904;2024-01-30T06:04:26;6.40;1.00
13642;DHT22;6894;52.196;9.904;2024-01-30T06:06:53;7.20;1.00
13642;DHT22;6894;52.196;9.904;2024-01-30T06:09:20;6.00;1.00
13642;DHT22;6894;52.196;9.904;2024-01-30T06:11:46;5.80;1.00
13642;DHT22;6894;52.196;9.904;2024-01-30T06:14:13;5.70;1.00
13642;DHT22;6894;52.196;9.904;2024-01-30T06:16:40;5.60;1.00
13642;DHT22;6894;52.196;9.904;2024-01-30T06:19:06;5.60;1.00
13642;DHT22;6894;52.196;9.904;2024-01-30T06:21:34;5.60;1.00
13642;DHT22;6894;52.196;9.904;2024-01-30T06:24:04;5.60;99.90
13642;DHT22;6894;52.196;9.904;2024-01-30T06:26:31;5.70;99.90
13642;DHT22;6894;52.196;9.904;2024-01-30T06:28:57;5.80;99.90
13642;DHT22;6894;52.196;9.904;2024-01-30T06:31:24;5.90;1.00
13642;DHT22;6894;52.196;9.904;2024-01-30T06:33:51;5.90;1.00
13642;DHT22;6894;52.196;9.904;2024-01-30T06:36:18;6.00;1.00
13642;DHT22;6894;52.196;9.904;2024-01-30T06:38:46;5.90;1.00
13642;DHT22;6894;52.196;9.904;2024-01-30T06:41:13;5.80;99.90
13642;DHT22;6894;52.196;9.904;2024-01-30T06:43:40;5.90;99.90
13642;DHT22;6894;52.196;9.904;2024-01-30T06:46:07;5.90;99.90
13642;DHT22;6894;52.196;9.904;2024-01-30T06:48:34;5.90;99.90
13642;DHT22;6894;52.196;9.904;2024-01-30T06:51:00;5.80;99.90
13642;DHT22;6894;52.196;9.904;2024-01-30T06:53:27;5.80;99.90
13642;DHT22;6894;52.196;9.904;2024-01-30T06:55:55;5.70;99.90
13642;DHT22;6894;52.196;9.904;2024-01-30T06:58:22;5.80;99.90
13642;DHT22;6894;52.196;9.904;2024-01-30T07:00:49;5.70;99.90
13642;DHT22;6894;52.196;9.904;2024-01-30T07:03:15;5.80;88.70
13642;DHT22;6894;52.196;9.904;2024-01-30T07:05:42;5.80;56.30
13642;DHT22;6894;52.196;9.904;2024-01-30T07:08:09;6.60;98.60
13642;DHT22;6894;52.196;9.904;2024-01-30T07:10:36;6.70;1.00
13642;DHT22;6894;52.196;9.904;2024-01-30T07:13:04;6.00;99.90
13642;DHT22;6894;52.196;9.904;2024-01-30T07:15:31;6.00;99.90
13642;DHT22;6894;52.196;9.904;2024-01-30T07:17:58;6.00;99.90
13642;DHT22;6894;52.196;9.904;2024-01-30T07:20:25;6.10;99.90
13642;DHT22;6894;52.196;9.904;2024-01-30T07:22:52;6.20;99.90
13642;DHT22;6894;52.196;9.904;2024-01-30T07:25:18;6.20;75.60
13642;DHT22;6894;52.196;9.904;2024-01-30T07:27:47;6.20;13.30
13642;DHT22;6894;52.196;9.904;2024-01-30T07:30:15;6.30;1.00
13642;DHT22;6894;52.196;9.904;2024-01-30T07:32:42;6.30;1.00
13642;DHT22;6894;52.196;9.904;2024-01-30T07:35:09;6.30;1.00
13642;DHT22;6894;52.196;9.904;2024-01-30T07:37:36;6.30;1.00
13642;DHT22;6894;52.196;9.904;2024-01-30T07:40:04;6.30;1.00
13642;DHT22;6894;52.196;9.904;2024-01-30T07:42:32;6.30;1.00
13642;DHT22;6894;52.196;9.904;2024-01-30T07:44:59;6.40;1.00
13642;DHT22;6894;52.196;9.904;2024-01-30T07:47:27;6.40;1.00
13642;DHT22;6894;52.196;9.904;2024-01-30T07:49:54;6.40;1.00
13642;DHT22;6894;52.196;9.904;2024-01-30T07:52:21;6.30;1.00
13642;DHT22;6894;52.196;9.904;2024-01-30T07:54:47;6.40;1.00
13642;DHT22;6894;52.196;9.904;2024-01-30T07:57:14;6.40;1.00
13642;DHT22;6894;52.196;9.904;2024-01-30T07:59:42;6.40;1.00
13642;DHT22;6894;52.196;9.904;2024-01-30T08:02:09;6.50;1.00
13642;DHT22;6894;52.196;9.904;2024-01-30T08:04:38;6.50;1.00
13642;DHT22;6894;52.196;9.904;2024-01-30T08:07:05;6.50;1.00
13642;DHT22;6894;52.196;9.904;2024-01-30T08:09:31;6.50;1.00
13642;DHT22;6894;52.196;9.904;2024-01-30T08:11:58;6.50;1.00
13642;DHT22;6894;52.196;9.904;2024-01-30T08:14:25;6.70;1.00
13642;DHT22;6894;52.196;9.904;2024-01-30T08:16:52;6.60;1.00
13642;DHT22;6894;52.196;9.904;2024-01-30T08:19:19;6.60;1.00
13642;DHT22;6894;52.196;9.904;2024-01-30T08:21:47;6.60;1.00
13642;DHT22;6894;52.196;9.904;2024-01-30T08:24:14;6.70;1.00
13642;DHT22;6894;52.196;9.904;2024-01-30T08:26:41;6.70;1.00
13642;DHT22;6894;52.196;9.904;2024-01-30T08:29:07;6.70;1.00
13642;DHT22;6894;52.196;9.904;2024-01-30T08:31:34;6.80;1.00
13642;DHT22;6894;52.196;9.904;2024-01-30T08:34:01;6.80;1.00
13642;DHT22;6894;52.196;9.904;2024-01-30T08:36:28;6.80;1.00
13642;DHT22;6894;52.196;9.904;2024-01-30T08:38:56;6.90;1.00
13642;DHT22;6894;52.196;9.904;2024-01-30T08:41:22;6.90;1.00
13642;DHT22;6894;52.196;9.904;2024-01-30T08:43:49;6.90;1.00
13642;DHT22;6894;52.196;9.904;2024-01-30T08:46:17;6.90;1.00
13642;DHT22;6894;52.196;9.904;2024-01-30T08:48:44;7.00;1.00
13642;DHT22;6894;52.196;9.904;2024-01-30T08:51:11;7.10;1.00
13642;DHT22;6894;52.196;9.904;2024-01-30T08:53:38;7.10;1.00
13642;DHT22;6894;52.196;9.904;2024-01-30T08:56:07;7.20;1.00
13642;DHT22;6894;52.196;9.904;2024-01-30T08:58:33;7.20;1.00
13642;DHT22;6894;52.196;9.904;2024-01-30T09:01:00;7.30;1.00
13642;DHT22;6894;52.196;9.904;2024-01-30T09:03:29;7.30;1.00
13642;DHT22;6894;52.196;9.904;2024-01-30T09:05:55;7.40;1.00
13642;DHT22;6894;52.196;9.904;2024-01-30T09:08:22;7.50;1.00
13642;DHT22;6894;52.196;9.904;2024-01-30T09:10:49;7.60;99.90
13642;DHT22;6894;52.196;9.904;2024-01-30T09:13:17;7.80;99.90
13642;DHT22;6894;52.196;9.904;2024-01-30T09:15:44;7.90;99.90
13642;DHT22;6894;52.196;9.904;2024-01-30T09:18:11;8.10;99.90
13642;DHT22;6894;52.196;9.904;2024-01-30T09:20:38;8.30;99.90
13642;DHT22;6894;52.196;9.904;2024-01-30T09:23:05;8.40;50.10
13642;DHT22;6894;52.196;9.904;2024-01-30T09:25:32;8.50;1.00
13642;DHT22;6894;52.196;9.904;2024-01-30T09:27:59;8.60;1.00
13642;DHT22;6894;52.196;9.904;2024-01-30T09:30:27;8.60;1.00
13642;DHT22;6894;52.196;9.904;2024-01-30T09:32:54;8.70;1.00
13642;DHT22;6894;52.196;9.904;2024-01-30T09:35:21;8.70;99.90
13642;DHT22;6894;52.196;9.904;2024-01-30T09:37:48;8.70;99.90
13642;DHT22;6894;52.196;9.904;2024-01-30T09:40:14;8.70;99.90
13642;DHT22;6894;52.196;9.904;2024-01-30T09:42:46;8.70;99.90
13642;DHT22;6894;52.196;9.904;2024-01-30T09:45:14;8.80;99.90
13642;DHT22;6894;52.196;9.904;2024-01-30T09:47:43;8.80;16.30
13642;DHT22;6894;52.196;9.904;2024-01-30T09:50:11;9.00;43.30
13642;DHT22;6894;52.196;9.904;2024-01-30T09:52:38;9.00;1.00
13642;DHT22;6894;52.196;9.904;2024-01-30T09:55:06;9.00;1.00
13642;DHT22;6894;52.196;9.904;2024-01-30T09:57:34;9.10;1.00
13642;DHT22;6894;52.196;9.904;2024-01-30T10:00:01;9.20;1.00
13642;DHT22;6894;52.196;9.904;2024-01-30T10:02:27;9.30;1.00
13642;DHT22;6894;52.196;9.904;2024-01-30T10:04:55;9.30;1.00
13642;DHT22;6894;52.196;9.904;2024-01-30T10:07:22;9.30;1.00
13642;DHT22;6894;52.196;9.904;2024-01-30T10:09:49;9.40;1.00
13642;DHT22;6894;52.196;9.904;2024-01-30T10:12:16;9.50;1.00
13642;DHT22;6894;52.196;9.904;2024-01-30T10:14:43;9.70;1.00
13642;DHT22;6894;52.196;9.904;2024-01-30T10:17:10;9.70;1.00
13642;DHT22;6894;52.196;9.904;2024-01-30T10:19:38;9.90;1.00
13642;DHT22;6894;52.196;9.904;2024-01-30T10:22:06;10.00;1.00
13642;DHT22;6894;52.196;9.904;2024-01-30T10:24:33;10.10;99.90
13642;DHT22;6894;52.196;9.904;2024-01-30T10:27:00;10.20;99.90
13642;DHT22;6894;52.196;9.904;2024-01-30T10:29:27;10.30;99.90
13642;DHT22;6894;52.196;9.904;2024-01-30T10:31:58;10.30;99.90
13642;DHT22;6894;52.196;9.904;2024-01-30T10:34:25;10.20;1.00
13642;DHT22;6894;52.196;9.904;2024-01-30T10:36:59;10.20;1.00
13642;DHT22;6894;52.196;9.904;2024-01-30T10:39:29;10.10;99.90
13642;DHT22;6894;52.196;9.904;2024-01-30T10:41:59;10.20;99.90
13642;DHT22;6894;52.196;9.904;2024-01-30T10:44:30;10.20;42.60
13642;DHT22;6894;52.196;9.904;2024-01-30T10:47:03;10.30;99.90
13642;DHT22;6894;52.196;9.904;2024-01-30T10:49:33;10.30;53.30
13642;DHT22;6894;52.196;9.904;2024-01-30T10:52:00;10.30;1.00
13642;DHT22;6894;52.196;9.904;2024-01-30T10:54:30;10.30;33.40
13642;DHT22;6894;52.196;9.904;2024-01-30T10:56:59;10.30;1.00
13642;DHT22;6894;52.196;9.904;2024-01-30T10:59:27;10.30;1.00
13642;DHT22;6894;52.196;9.904;2024-01-30T11:01:56;10.30;1.00
13642;DHT22;6894;52.196;9.904;2024-01-30T11:04:23;10.20;1.00
13642;DHT22;6894;52.196;9.904;2024-01-30T11:06:51;10.20;1.00
13642;DHT22;6894;52.196;9.904;2024-01-30T11:09:18;10.20;1.00
13642;DHT22;6894;52.196;9.904;2024-01-30T11:11:50;10.20;1.00
13642;DHT22;6894;52.196;9.904;2024-01-30T11:14:23;10.20;1.00
13642;DHT22;6894;52.196;9.904;2024-01-30T11:16:50;10.40;1.00
13642;DHT22;6894;52.196;9.904;2024-01-30T11:19:22;10.40;1.00
13642;DHT22;6894;52.196;9.904;2024-01-30T11:21:50;10.40;1.00
13642;DHT22;6894;52.196;9.904;2024-01-30T11:24:19;10.40;1.00
13642;DHT22;6894;52.196;9.904;2024-01-30T11:26:49;10.50;1.00
13642;DHT22;6894;52.196;9.904;2024-01-30T11:29:17;10.50;1.00
13642;DHT22;6894;52.196;9.904;2024-01-30T11:31:52;10.60;1.00
13642;DHT22;6894;52.196;9.904;2024-01-30T11:34:19;10.60;1.00
13642;DHT22;6894;52.196;9.904;2024-01-30T11:36:51;10.70;1.00
13642;DHT22;6894;52.196;9.904;2024-01-30T11:39:20;10.80;1.00
13642;DHT22;6894;52.196;9.904;2024-01-30T11:41:52;10.90;1.00
13642;DHT22;6894;52.196;9.904;2024-01-30T11:44:19;11.00;1.00
13642;DHT22;6894;52.196;9.904;2024-01-30T11:46:47;11.00;1.00
13642;DHT22;6894;52.196;9.904;2024-01-30T11:49:15;10.90;1.00
13642;DHT22;6894;52.196;9.904;2024-01-30T11:51:42;11.00;1.00
13642;DHT22;6894;52.196;9.904;2024-01-30T11:54:09;11.00;1.00
13642;DHT22;6894;52.196;9.904;2024-01-30T11:56:37;11.10;1.00
13642;DHT22;6894;52.196;9.904;2024-01-30T11:59:05;11.00;1.00
13642;DHT22;6894;52.196;9.904;2024-01-30T12:01:32;11.10;1.00
13642;DHT22;6894;52.196;9.904;2024-01-30T12:03:59;11.10;1.00
13642;DHT22;6894;52.196;9.904;2024-01-30T12:06:26;11.10;1.00
13642;DHT22;6894;52.196;9.904;2024-01-30T12:08:57;11.20;1.00
13642;DHT22;6894;52.196;9.904;2024-01-30T12:11:25;11.20;1.00
13642;DHT22;6894;52.196;9.904;2024-01-30T12:13:52;11.20;1.00
13642;DHT22;6894;52.196;9.904;2024-01-30T12:16:21;11.30;1.00
13642;DHT22;6894;52.196;9.904;2024-01-30T12:18:48;11.50;1.00
13642;DHT22;6894;52.196;9.904;2024-01-30T12:21:16;12.30;1.00
13642;DHT22;6894;52.196;9.904;2024-01-30T12:23:43;11.90;1.00
13642;DHT22;6894;52.196;9.904;2024-01-30T12:26:10;12.10;1.00
13642;DHT22;6894;52.196;9.904;2024-01-30T12:28:46;12.30;1.00
13642;DHT22;6894;52.196;9.904;2024-01-30T12:31:13;12.70;1.00
13642;DHT22;6894;52.196;9.904;2024-01-30T12:33:41;13.00;99.90
13642;DHT22;6894;52.196;9.904;2024-01-30T12:36:08;13.50;99.90
13642;DHT22;6894;52.196;9.904;2024-01-30T12:38:35;13.80;99.90
13642;DHT22;6894;52.196;9.904;2024-01-30T12:41:02;14.20;1.00
13642;DHT22;6894;52.196;9.904;2024-01-30T12:43:29;14.60;1.00
13642;DHT22;6894;52.196;9.904;2024-01-30T12:45:56;14.90;1.00
13642;DHT22;6894;52.196;9.904;2024-01-30T12:48:23;15.10;1.00
13642;DHT22;6894;52.196;9.904;2024-01-30T12:50:52;14.90;1.00
13642;DHT22;6894;52.196;9.904;2024-01-30T12:53:19;14.60;1.00
13642;DHT22;6894;52.196;9.904;2024-01-30T12:55:45;14.30;1.00
13642;DHT22;6894;52.196;9.904;2024-01-30T12:58:12;14.10;1.00
13642;DHT22;6894;52.196;9.904;2024-01-30T13:00:39;13.90;1.00
13642;DHT22;6894;52.196;9.904;2024-01-30T13:03:06;13.60;1.00
13642;DHT22;6894;52.196;9.904;2024-01-30T13:05:33;13.40;1.00
13642;DHT22;6894;52.196;9.904;2024-01-30T13:08:02;13.30;1.00
13642;DHT22;6894;52.196;9.904;2024-01-30T13:10:29;13.20;1.00
13642;DHT22;6894;52.196;9.904;2024-01-30T13:12:55;13.10;1.00
13642;DHT22;6894;52.196;9.904;2024-01-30T13:15:22;13.10;1.00
13642;DHT22;6894;52.196;9.904;2024-01-30T13:17:49;13.00;1.00
13642;DHT22;6894;52.196;9.904;2024-01-30T13:20:18;13.10;1.00
13642;DHT22;6894;52.196;9.904;2024-01-30T13:22:47;12.90;1.00
13642;DHT22;6894;52.196;9.904;2024-01-30T13:25:16;12.70;1.00
13642;DHT22;6894;52.196;9.904;2024-01-30T13:27:43;12.70;1.00
13642;DHT22;6894;52.196;9.904;2024-01-30T13:30:10;12.50;1.00
13642;DHT22;6894;52.196;9.904;2024-01-30T13:32:37;12.40;1.00
13642;DHT22;6894;52.196;9.904;2024-01-30T13:35:04;12.40;1.00
13642;DHT22;6894;52.196;9.904;2024-01-30T13:37:31;12.20;1.00
13642;DHT22;6894;52.196;9.904;2024-01-30T13:39:58;12.20;1.00
13642;DHT22;6894;52.196;9.904;2024-01-30T13:42:26;12.00;1.00
13642;DHT22;6894;52.196;9.904;2024-01-30T13:44:53;12.00;36.90
13642;DHT22;6894;52.196;9.904;2024-01-30T13:47:19;12.00;80.30
13642;DHT22;6894;52.196;9.904;2024-01-30T13:49:47;11.90;99.90
13642;DHT22;6894;52.196;9.904;2024-01-30T13:52:13;11.80;99.90
13642;DHT22;6894;52.196;9.904;2024-01-30T13:54:40;11.80;99.90
13642;DHT22;6894;52.196;9.904;2024-01-30T13:57:07;11.70;99.90
13642;DHT22;6894;52.196;9.904;2024-01-30T13:59:35;11.70;99.90
13642;DHT22;6894;52.196;9.904;2024-01-30T14:02:02;11.60;99.90
13642;DHT22;6894;52.196;9.904;2024-01-30T14:04:29;11.50;99.90
13642;DHT22;6894;52.196;9.904;2024-01-30T14:06:55;11.60;99.90
13642;DHT22;6894;52.196;9.904;2024-01-30T14:09:22;11.40;99.90
13642;DHT22;6894;52.196;9.904;2024-01-30T14:11:49;11.40;99.90
13642;DHT22;6894;52.196;9.904;2024-01-30T14:14:16;11.40;99.90
13642;DHT22;6894;52.196;9.904;2024-01-30T14:16:45;11.40;99.90
13642;DHT22;6894;52.196;9.904;2024-01-30T14:19:12;11.40;99.90
13642;DHT22;6894;52.196;9.904;2024-01-30T14:21:38;11.40;99.90
13642;DHT22;6894;52.196;9.904;2024-01-30T14:24:05;11.30;99.90
13642;DHT22;6894;52.196;9.904;2024-01-30T14:26:32;11.30;99.90
13642;DHT22;6894;52.196;9.904;2024-01-30T14:28:59;11.20;99.90
13642;DHT22;6894;52.196;9.904;2024-01-30T14:31:26;11.20;99.90
13642;DHT22;6894;52.196;9.904;2024-01-30T14:33:54;11.20;1.00
13642;DHT22;6894;52.196;9.904;2024-01-30T14:36:21;11.10;1.00
13642;DHT22;6894;52.196;9.904;2024-01-30T14:38:47;11.20;1.00
13642;DHT22;6894;52.196;9.904;2024-01-30T14:41:14;11.00;1.00
13642;DHT22;6894;52.196;9.904;2024-01-30T14:43:41;11.10;1.00
13642;DHT22;6894;52.196;9.904;2024-01-30T14:46:08;11.00;1.00
13642;DHT22;6894;52.196;9.904;2024-01-30T14:48:35;11.00;1.00
13642;DHT22;6894;52.196;9.904;2024-01-30T14:51:03;11.00;1.00
13642;DHT22;6894;52.196;9.904;2024-01-30T14:53:30;11.10;1.00
13642;DHT22;6894;52.196;9.904;2024-01-30T14:55:57;11.00;1.00
13642;DHT22;6894;52.196;9.904;2024-01-30T14:58:23;11.00;1.00
13642;DHT22;6894;52.196;9.904;2024-01-30T15:00:50;11.10;1.00
13642;DHT22;6894;52.196;9.904;2024-01-30T15:03:17;11.10;1.00
13642;DHT22;6894;52.196;9.904;2024-01-30T15:05:43;11.10;1.00
13642;DHT22;6894;52.196;9.904;2024-01-30T15:08:12;11.10;1.00
13642;DHT22;6894;52.196;9.904;2024-01-30T15:10:38;11.20;1.00
13642;DHT22;6894;52.196;9.904;2024-01-30T15:13:05;11.20;1.00
13642;DHT22;6894;52.196;9.904;2024-01-30T15:15:32;11.20;1.00
13642;DHT22;6894;52.196;9.904;2024-01-30T15:17:59;11.20;1.00
13642;DHT22;6894;52.196;9.904;2024-01-30T15:20:26;11.20;1.00
13642;DHT22;6894;52.196;9.904;2024-01-30T15:22:53;11.20;1.00
13642;DHT22;6894;52.196;9.904;2024-01-30T15:25:21;11.20;1.00
13642;DHT22;6894;52.196;9.904;2024-01-30T15:27:48;11.30;1.00
13642;DHT22;6894;52.196;9.904;2024-01-30T15:30:14;11.20;1.00
13642;DHT22;6894;52.196;9.904;2024-01-30T15:32:41;11.30;1.00
13642;DHT22;6894;52.196;9.904;2024-01-30T15:35:08;11.20;1.00
13642;DHT22;6894;52.196;9.904;2024-01-30T15:37:35;11.20;1.00
13642;DHT22;6894;52.196;9.904;2024-01-30T15:40:02;11.10;1.00
13642;DHT22;6894;52.196;9.904;2024-01-30T15:42:33;11.10;1.00
13642;DHT22;6894;52.196;9.904;2024-01-30T15:44:59;11.00;1.00
13642;DHT22;6894;52.196;9.904;2024-01-30T15:47:26;11.00;1.00
13642;DHT22;6894;52.196;9.904;2024-01-30T15:49:53;10.80;1.00
13642;DHT22;6894;52.196;9.904;2024-01-30T15:52:20;10.80;1.00
13642;DHT22;6894;52.196;9.904;2024-01-30T15:54:47;10.70;1.00
13642;DHT22;6894;52.196;9.904;2024-01-30T15:57:13;10.70;1.00
13642;DHT22;6894;52.196;9.904;2024-01-30T15:59:42;10.60;1.00
13642;DHT22;6894;52.196;9.904;2024-01-30T16:02:09;10.60;1.00
13642;DHT22;6894;52.196;9.904;2024-01-30T16:04:35;10.50;1.00
13642;DHT22;6894;52.196;9.904;2024-01-30T16:07:02;10.50;1.00